sensor_id;sensor_type;location;lat;lon;timestamp;pressure;altitude;pressure_sealevel;temperature;humidity
3654;BME280;19971;54.326;10.116;2023-05-20T09:58:56;102588.91;;;23.07;46.19
3654;BME280;19971;54.326;10.116;2023-05-20T10:01:23;102590.25;;;23.10;46.29
3654;BME280;19971;54.326;10.116;2023-05-20T10:03:50;102593.47;;;23.22;45.97
3654;BME280;19971;54.326;10.116;2023-05-20T10:12:28;102582.91;;;23.29;46.32
3654;BME280;19971;54.326;10.116;2023-05-20T10:15:15;102590.34;;;23.00;46.52
3654;BME280;19971;54.326;10.116;2023-05-20T10:18:12;102584.31;;;22.92;47.06
3654;BME280;19971;54.326;10.116;2023-05-20T10:20:48;102591.50;;;22.88;47.42
3654;BME280;19971;54.326;10.116;2023-05-20T10:23:21;102582.19;;;22.79;47.51
3654;BME280;19971;54.326;10.116;2023-05-20T10:25:57;102578.59;;;22.79;47.49
3654;BME280;19971;54.326;10.116;2023-05-20T10:28:33;102574.84;;;22.64;48.66
3654;BME280;70277;54.302;10.064;2023-05-20T10:31:02;102574.22;;;22.73;47.96
3654;BME280;70277;54.302;10.064;2023-05-20T10:33:29;102572.97;;;22.55;47.42
3654;BME280;70277;54.302;10.064;2023-05-20T10:35:59;102569.75;;;22.37;47.94
3654;BME280;70277;54.302;10.064;2023-05-20T10:38:25;102576.13;;;22.33;47.81
3654;BME280;70277;54.302;10.064;2023-05-20T10:40:52;102566.78;;;22.23;47.58
3654;BME280;70277;54.302;10.064;2023-05-20T10:43:26;102560.22;;;22.19;47.43
3654;BME280;70277;54.302;10.064;2023-05-20T10:45:56;102562.69;;;22.11;47.57
3654;BME280;70277;54.302;10.064;2023-05-20T11:17:17;102487.50;;;19.22;43.77
3654;BME280;70277;54.302;10.064;2023-05-20T11:19:45;102492.41;;;19.15;44.15
3654;BME280;70277;54.302;10.064;2023-05-20T11:22:12;102492.91;;;19.07;45.49
3654;BME280;70277;54.302;10.064;2023-05-20T11:24:39;102488.03;;;19.14;44.22
3654;BME280;70277;54.302;10.064;2023-05-20T11:27:05;102490.63;;;18.94;44.35
3654;BME280;70277;54.302;10.064;2023-05-20T11:29:33;102485.66;;;18.96;45.82
3654;BME280;70277;54.302;10.064;2023-05-20T11:31:59;102477.53;;;19.06;46.26
3654;BME280;70277;54.302;10.064;2023-05-20T11:34:33;102473.97;;;19.10;45.57
3654;BME280;70277;54.302;10.064;2023-05-20T11:36:59;102483.94;;;19.17;45.39
3654;BME280;70277;54.302;10.064;2023-05-20T11:39:29;102472.50;;;19.40;45.22
3654;BME280;70277;54.302;10.064;2023-05-20T11:41:56;102480.53;;;19.52;45.52
3654;BME280;70277;54.302;10.064;2023-05-20T11:44:23;102473.44;;;19.56;45.32
3654;BME280;70277;54.302;10.064;2023-05-20T11:46:50;102465.44;;;20.38;43.09
3654;BME280;70277;54.302;10.064;2023-05-20T11:49:16;102479.09;;;19.39;44.90
3654;BME280;70277;54.302;10.064;2023-05-20T11:51:43;102475.22;;;18.88;46.12
3654;BME280;70277;54.302;10.064;2023-05-20T11:54:10;102466.94;;;18.82;45.77
3654;BME280;70277;54.302;10.064;2023-05-20T11:56:37;102465.34;;;19.34;44.77
3654;BME280;70277;54.302;10.064;2023-05-20T11:59:05;102469.03;;;20.33;44.68
3654;BME280;70277;54.302;10.064;2023-05-20T12:01:34;102471.03;;;19.65;44.68
3654;BME280;70277;54.302;10.064;2023-05-20T12:04:03;102451.75;;;20.63;42.16
3654;BME280;70277;54.302;10.064;2023-05-20T12:06:31;102454.78;;;20.72;41.34
3654;BME280;70277;54.302;10.064;2023-05-20T12:09:01;102444.59;;;20.73;42.46
3654;BME280;70277;54.302;10.064;2023-05-20T12:11:35;102450.78;;;21.50;40.91
3654;BME280;70277;54.302;10.064;2023-05-20T12:14:02;102445.75;;;22.12;40.54
3654;BME280;70277;54.302;10.064;2023-05-20T12:16:33;102435.38;;;21.98;40.49
3654;BME280;70277;54.302;10.064;2023-05-20T12:19:00;102436.78;;;21.36;40.81
3654;BME280;70277;54.302;10.064;2023-05-20T12:21:28;102442.72;;;21.64;40.46
3654;BME280;70277;54.302;10.064;2023-05-20T12:23:54;102447.97;;;22.83;39.36
3654;BME280;70277;54.302;10.064;2023-05-20T12:26:28;102442.25;;;22.45;38.56
3654;BME280;70277;54.302;10.064;2023-05-20T12:28:55;102440.22;;;22.56;39.08
3654;BME280;70277;54.302;10.064;2023-05-20T12:31:21;102437.00;;;22.44;38.10
3654;BME280;70277;54.302;10.064;2023-05-20T12:33:48;102428.06;;;21.78;39.39
3654;BME280;70277;54.302;10.064;2023-05-20T12:36:15;102441.31;;;22.21;40.29
3654;BME280;70277;54.302;10.064;2023-05-20T12:38:41;102430.03;;;22.22;39.95
3654;BME280;70277;54.302;10.064;2023-05-20T12:41:08;102433.44;;;21.99;40.49
3654;BME280;70277;54.302;10.064;2023-05-20T12:43:35;102435.88;;;22.79;39.74
3654;BME280;70277;54.302;10.064;2023-05-20T12:46:03;102434.53;;;23.06;37.12
3654;BME280;70277;54.302;10.064;2023-05-20T12:48:30;102436.44;;;23.10;38.24
3654;BME280;70277;54.302;10.064;2023-05-20T12:50:56;102433.59;;;22.57;39.11
3654;BME280;70277;54.302;10.064;2023-05-20T12:53:23;102435.31;;;21.59;40.90
3654;BME280;70277;54.302;10.064;2023-05-20T12:55:49;102439.00;;;20.01;44.17
3654;BME280;70277;54.302;10.064;2023-05-20T12:58:16;102426.13;;;19.39;45.14
3654;BME280;70277;54.302;10.064;2023-05-20T13:00:42;102424.91;;;19.14;45.59
3654;BME280;70277;54.302;10.064;2023-05-20T13:03:09;102423.88;;;19.30;46.73
3654;BME280;70277;54.302;10.064;2023-05-20T13:05:35;102421.41;;;18.81;47.99
3654;BME280;70277;54.302;10.064;2023-05-20T13:08:02;102422.81;;;18.57;47.74
3654;BME280;70277;54.302;10.064;2023-05-20T13:10:28;102433.81;;;18.30;48.83
3654;BME280;70277;54.302;10.064;2023-05-20T13:12:55;102424.94;;;17.90;50.00
3654;BME280;70277;54.302;10.064;2023-05-20T13:15:21;102430.28;;;17.58;49.83
3654;BME280;70277;54.302;10.064;2023-05-20T13:17:48;102430.28;;;17.58;50.21
3654;BME280;70277;54.302;10.064;2023-05-20T13:20:15;102429.31;;;17.91;50.19
3654;BME280;70277;54.302;10.064;2023-05-20T13:22:44;102435.44;;;17.99;49.52
3654;BME280;70277;54.302;10.064;2023-05-20T13:25:11;102416.50;;;17.97;50.03
3654;BME280;70277;54.302;10.064;2023-05-20T13:27:37;102424.56;;;18.09;48.80
3654;BME280;70277;54.302;10.064;2023-05-20T13:30:05;102420.31;;;17.74;49.95
3654;BME280;70277;54.302;10.064;2023-05-20T13:32:32;102421.88;;;17.65;49.95
3654;BME280;70277;54.302;10.064;2023-05-20T13:34:58;102408.41;;;18.07;49.17
3654;BME280;70277;54.302;10.064;2023-05-20T13:37:25;102410.13;;;18.13;50.74
3654;BME280;70277;54.302;10.064;2023-05-20T13:39:52;102404.97;;;18.54;49.78
3654;BME280;70277;54.302;10.064;2023-05-20T13:42:18;102401.41;;;18.22;49.71
3654;BME280;70277;54.302;10.064;2023-05-20T13:44:47;102383.59;;;18.56;48.51
3654;BME280;70277;54.302;10.064;2023-05-20T13:47:14;102389.69;;;18.63;49.46
3654;BME280;70277;54.302;10.064;2023-05-20T13:49:40;102383.41;;;18.68;48.34
3654;BME280;70277;54.302;10.064;2023-05-20T13:52:06;102384.13;;;18.85;47.70
3654;BME280;70277;54.302;10.064;2023-05-20T13:54:33;102383.06;;;18.92;48.56
3654;BME280;70277;54.302;10.064;2023-05-20T13:56:59;102392.88;;;18.82;46.80
3654;BME280;70277;54.302;10.064;2023-05-20T13:59:26;102385.03;;;18.64;47.16
3654;BME280;70277;54.302;10.064;2023-05-20T14:01:53;102377.13;;;19.15;47.15
3654;BME280;70277;54.302;10.064;2023-05-20T14:04:20;102382.00;;;18.60;47.82
3654;BME280;70277;54.302;10.064;2023-05-20T14:06:47;102375.47;;;18.67;46.90
3654;BME280;70277;54.302;10.064;2023-05-20T14:09:13;102372.03;;;18.81;47.92
3654;BME280;70277;54.302;10.064;2023-05-20T14:11:40;102377.72;;;18.42;47.52
3654;BME280;70277;54.302;10.064;2023-05-20T14:14:07;102372.22;;;18.37;47.06
3654;BME280;70277;54.302;10.064;2023-05-20T14:16:33;102380.28;;;18.17;47.82
3654;BME280;70277;54.302;10.064;2023-05-20T14:19:00;102369.38;;;17.95;46.91
3654;BME280;70277;54.302;10.064;2023-05-20T14:21:26;102358.63;;;17.88;47.19
3654;BME280;70277;54.302;10.064;2023-05-20T14:23:53;102365.00;;;18.26;47.07
3654;BME280;70277;54.302;10.064;2023-05-20T14:26:19;102361.59;;;18.46;47.36
3654;BME280;70277;54.302;10.064;2023-05-20T14:28:47;102366.22;;;18.40;47.53
3654;BME280;70277;54.302;10.064;2023-05-20T14:31:13;102353.69;;;18.17;46.71
3654;BME280;70277;54.302;10.064;2023-05-20T14:33:43;102356.56;;;18.33;48.36
3654;BME280;70277;54.302;10.064;2023-05-20T14:36:10;102351.69;;;18.40;46.54
3654;BME280;70277;54.302;10.064;2023-05-20T14:38:37;102355.88;;;18.53;47.77
3654;BME280;70277;54.302;10.064;2023-05-20T14:41:04;102342.63;;;18.39;46.63
3654;BME280;70277;54.302;10.064;2023-05-20T14:43:30;102350.31;;;18.42;46.98
3654;BME280;70277;54.302;10.064;2023-05-20T14:45:57;102350.31;;;18.37;45.98
3654;BME280;70277;54.302;10.064;2023-05-20T14:48:24;102338.28;;;18.44;46.96
3654;BME280;70277;54.302;10.064;2023-05-20T14:50:50;102338.19;;;18.71;46.07
3654;BME280;70277;54.302;10.064;2023-05-20T14:53:18;102343.91;;;18.69;47.53
3654;BME280;70277;54.302;10.064;2023-05-20T14:55:44;102336.66;;;18.48;46.93
3654;BME280;70277;54.302;10.064;2023-05-20T14:58:11;102335.50;;;18.38;47.44
3654;BME280;70277;54.302;10.064;2023-05-20T15:00:38;102328.31;;;17.73;48.27
3654;BME280;70277;54.302;10.064;2023-05-20T15:03:04;102326.22;;;17.31;48.52
3654;BME280;70277;54.302;10.064;2023-05-20T15:05:31;102324.94;;;17.17;47.78
3654;BME280;70277;54.302;10.064;2023-05-20T15:07:58;102325.91;;;17.27;48.15
3654;BME280;70277;54.302;10.064;2023-05-20T15:10:24;102316.53;;;17.72;47.71
3654;BME280;70277;54.302;10.064;2023-05-20T15:12:51;102317.00;;;17.91;46.93
3654;BME280;70277;54.302;10.064;2023-05-20T15:15:19;102314.63;;;17.73;46.33
3654;BME280;70277;54.302;10.064;2023-05-20T15:17:46;102295.69;;;17.66;47.32
3654;BME280;70277;54.302;10.064;2023-05-20T15:20:13;102289.09;;;18.27;46.11
3654;BME280;70277;54.302;10.064;2023-05-20T15:22:39;102292.22;;;18.46;45.62
3654;BME280;70277;54.302;10.064;2023-05-20T15:25:07;102302.44;;;18.55;44.88
3654;BME280;70277;54.302;10.064;2023-05-20T15:27:33;102291.53;;;18.23;45.38
3654;BME280;70277;54.302;10.064;2023-05-20T15:30:00;102296.78;;;17.98;44.96
3654;BME280;70277;54.302;10.064;2023-05-20T15:32:26;102286.25;;;17.30;46.19
3654;BME280;70277;54.302;10.064;2023-05-20T15:34:53;102289.63;;;17.64;46.32
3654;BME280;70277;54.302;10.064;2023-05-20T15:37:19;102291.03;;;17.40;46.44
3654;BME280;70277;54.302;10.064;2023-05-20T15:39:47;102286.59;;;17.12;46.91
3654;BME280;70277;54.302;10.064;2023-05-20T15:42:13;102282.72;;;17.08;46.90
3654;BME280;70277;54.302;10.064;2023-05-20T15:44:44;102281.44;;;16.93;47.23
3654;BME280;70277;54.302;10.064;2023-05-20T15:47:10;102281.03;;;17.06;47.70
3654;BME280;70277;54.302;10.064;2023-05-20T15:49:37;102268.09;;;17.19;47.58
3654;BME280;70277;54.302;10.064;2023-05-20T15:52:04;102277.44;;;17.01;47.06
3654;BME280;70277;54.302;10.064;2023-05-20T15:54:30;102266.63;;;16.89;47.27
3654;BME280;70277;54.302;10.064;2023-05-20T15:56:57;102267.88;;;17.03;47.14
3654;BME280;70277;54.302;10.064;2023-05-20T15:59:24;102259.91;;;17.24;47.06
3654;BME280;70277;54.302;10.064;2023-05-20T16:01:51;102257.44;;;17.22;46.82
3654;BME280;70277;54.302;10.064;2023-05-20T16:04:17;102255.91;;;17.32;47.02
3654;BME280;70277;54.302;10.064;2023-05-20T16:06:44;102255.28;;;17.24;46.53
3654;BME280;70277;54.302;10.064;2023-05-20T16:09:11;102255.72;;;16.94;47.16
3654;BME280;70277;54.302;10.064;2023-05-20T16:11:37;102252.72;;;17.18;47.10
3654;BME280;70277;54.302;10.064;2023-05-20T16:14:04;102254.19;;;17.03;47.24
3654;BME280;70277;54.302;10.064;2023-05-20T16:16:30;102252.88;;;16.84;47.84
3654;BME280;70277;54.302;10.064;2023-05-20T16:19:01;102246.78;;;16.99;47.19
3654;BME280;70277;54.302;10.064;2023-05-20T16:21:27;102251.41;;;16.76;47.11
3654;BME280;70277;54.302;10.064;2023-05-20T16:23:54;102255.94;;;16.71;47.42
3654;BME280;70277;54.302;10.064;2023-05-20T16:26:20;102248.38;;;16.56;48.30
3654;BME280;70277;54.302;10.064;2023-05-20T16:28:47;102252.50;;;16.58;48.84
3654;BME280;70277;54.302;10.064;2023-05-20T16:31:14;102247.34;;;16.62;48.07
3654;BME280;70277;54.302;10.064;2023-05-20T16:33:41;102242.78;;;16.46;48.04
3654;BME280;70277;54.302;10.064;2023-05-20T16:36:07;102241.63;;;16.42;48.36
3654;BME280;70277;54.302;10.064;2023-05-20T16:38:34;102225.59;;;16.11;49.33
3654;BME280;70277;54.302;10.064;2023-05-20T16:41:01;102235.88;;;16.04;49.39
3654;BME280;70277;54.302;10.064;2023-05-20T16:43:28;102231.91;;;15.95;49.00
3654;BME280;70277;54.302;10.064;2023-05-20T16:45:54;102239.69;;;16.03;49.63
3654;BME280;70277;54.302;10.064;2023-05-20T16:48:21;102232.56;;;16.02;49.27
3654;BME280;70277;54.302;10.064;2023-05-20T16:50:47;102218.19;;;15.90;48.95
3654;BME280;70277;54.302;10.064;2023-05-20T16:53:14;102218.03;;;15.80;49.62
3654;BME280;70277;54.302;10.064;2023-05-20T16:55:42;102231.25;;;15.88;49.66
3654;BME280;70277;54.302;10.064;2023-05-20T16:58:08;102225.13;;;15.98;49.11
3654;BME280;70277;54.302;10.064;2023-05-20T17:00:35;102222.56;;;15.91;49.30
3654;BME280;70277;54.302;10.064;2023-05-20T17:03:01;102221.28;;;15.65;49.16
3654;BME280;70277;54.302;10.064;2023-05-20T17:05:28;102228.13;;;15.51;50.03
3654;BME280;70277;54.302;10.064;2023-05-20T17:07:54;102228.59;;;15.31;50.53
3654;BME280;70277;54.302;10.064;2023-05-20T17:10:25;102228.69;;;15.36;50.65
3654;BME280;70277;54.302;10.064;2023-05-20T17:12:53;102217.19;;;15.34;50.21
3654;BME280;70277;54.302;10.064;2023-05-20T17:15:20;102234.72;;;15.38;50.36
3654;BME280;70277;54.302;10.064;2023-05-20T17:17:48;102226.00;;;15.24;50.82
3654;BME280;70277;54.302;10.064;2023-05-20T17:20:15;102221.88;;;15.21;50.93
3654;BME280;70277;54.302;10.064;2023-05-20T17:22:41;102229.13;;;15.16;51.40
3654;BME280;70277;54.302;10.064;2023-05-20T17:25:08;102228.47;;;15.25;51.27
3654;BME280;70277;54.302;10.064;2023-05-20T17:27:34;102227.00;;;15.18;50.99
3654;BME280;70277;54.302;10.064;2023-05-20T17:30:01;102228.97;;;15.22;52.19
3654;BME280;70277;54.302;10.064;2023-05-20T17:32:27;102230.09;;;15.10;51.45
3654;BME280;70277;54.302;10.064;2023-05-20T17:34:54;102215.94;;;14.84;51.14
3654;BME280;70277;54.302;10.064;2023-05-20T17:37:20;102226.06;;;14.72;52.01
3654;BME280;70277;54.302;10.064;2023-05-20T17:39:47;102215.16;;;14.72;52.59
3654;BME280;70277;54.302;10.064;2023-05-20T17:42:13;102222.03;;;14.74;52.10
3654;BME280;70277;54.302;10.064;2023-05-20T17:44:40;102227.97;;;14.60;51.15
3654;BME280;70277;54.302;10.064;2023-05-20T17:47:06;102224.75;;;14.51;51.47
3654;BME280;70277;54.302;10.064;2023-05-20T17:49:33;102226.31;;;14.47;50.85
3654;BME280;70277;54.302;10.064;2023-05-20T17:51:59;102217.22;;;14.29;51.60
3654;BME280;70277;54.302;10.064;2023-05-20T17:54:26;102218.50;;;14.27;51.44
3654;BME280;70277;54.302;10.064;2023-05-20T17:56:53;102212.94;;;14.22;51.41
3654;BME280;70277;54.302;10.064;2023-05-20T17:59:19;102216.97;;;14.19;52.14
3654;BME280;70277;54.302;10.064;2023-05-20T18:01:46;102225.13;;;14.07;52.13
3654;BME280;70277;54.302;10.064;2023-05-20T18:04:13;102227.28;;;13.94;52.48
3654;BME280;70277;54.302;10.064;2023-05-20T18:06:39;102222.78;;;13.87;52.50
3654;BME280;70277;54.302;10.064;2023-05-20T18:09:07;102230.94;;;13.87;52.47
3654;BME280;70277;54.302;10.064;2023-05-20T18:11:34;102235.28;;;13.77;52.89
3654;BME280;70277;54.302;10.064;2023-05-20T18:14:01;102222.16;;;13.74;52.72
3654;BME280;70277;54.302;10.064;2023-05-20T18:16:29;102217.75;;;13.61;52.98
3654;BME280;70277;54.302;10.064;2023-05-20T18:18:56;102234.25;;;13.48;53.83
3654;BME280;70277;54.302;10.064;2023-05-20T18:21:23;102226.34;;;13.46;53.80
3654;BME280;70277;54.302;10.064;2023-05-20T18:23:50;102225.97;;;13.42;54.75
3654;BME280;70277;54.302;10.064;2023-05-20T18:26:17;102222.88;;;13.39;54.17
3654;BME280;70277;54.302;10.064;2023-05-20T18:28:43;102216.16;;;13.41;54.92
3654;BME280;70277;54.302;10.064;2023-05-20T18:31:10;102220.00;;;13.34;55.17
3654;BME280;70277;54.302;10.064;2023-05-20T18:33:36;102224.31;;;13.41;55.73
3654;BME280;70277;54.302;10.064;2023-05-20T18:36:03;102219.59;;;13.37;55.52
3654;BME280;70277;54.302;10.064;2023-05-20T18:38:31;102217.91;;;13.36;55.21
3654;BME280;70277;54.302;10.064;2023-05-20T18:40:58;102221.91;;;13.33;55.80
3654;BME280;70277;54.302;10.064;2023-05-20T18:43:25;102223.19;;;13.31;55.36
3654;BME280;70277;54.302;10.064;2023-05-20T18:45:51;102229.03;;;13.34;55.33
3654;BME280;70277;54.302;10.064;2023-05-20T18:48:19;102224.34;;;13.23;54.96
3654;BME280;70277;54.302;10.064;2023-05-20T18:50:53;102223.56;;;13.16;55.68
3654;BME280;70277;54.302;10.064;2023-05-20T18:53:20;102220.75;;;13.11;56.01
3654;BME280;70277;54.302;10.064;2023-05-20T18:55:47;102223.72;;;12.91;56.49
3654;BME280;70277;54.302;10.064;2023-05-20T18:58:13;102218.75;;;12.88;56.66
3654;BME280;70277;54.302;10.064;2023-05-20T19:00:40;102226.38;;;12.79;57.51
3654;BME280;70277;54.302;10.064;2023-05-20T19:03:07;102231.50;;;12.69;56.99
3654;BME280;70277;54.302;10.064;2023-05-20T19:05:33;102218.22;;;12.61;57.33
3654;BME280;70277;54.302;10.064;2023-05-20T19:08:00;102225.22;;;12.68;57.18
3654;BME280;70277;54.302;10.064;2023-05-20T19:10:27;102218.81;;;12.63;58.01
3654;BME280;70277;54.302;10.064;2023-05-20T19:12:54;102221.53;;;12.63;57.86
3654;BME280;70277;54.302;10.064;2023-05-20T19:15:21;102213.69;;;12.55;57.49
3654;BME280;70277;54.302;10.064;2023-05-20T19:17:48;102223.03;;;12.40;57.69
3654;BME280;70277;54.302;10.064;2023-05-20T19:20:15;102221.31;;;12.27;57.92
3654;BME280;70277;54.302;10.064;2023-05-20T19:22:41;102218.72;;;12.33;58.64
3654;BME280;70277;54.302;10.064;2023-05-20T19:25:08;102213.16;;;12.27;57.94
3654;BME280;70277;54.302;10.064;2023-05-20T19:27:35;102216.53;;;12.23;59.00
3654;BME280;70277;54.302;10.064;2023-05-20T19:30:01;102209.44;;;12.22;58.70
3654;BME280;70277;54.302;10.064;2023-05-20T19:32:28;102202.72;;;12.24;58.95
3654;BME280;70277;54.302;10.064;2023-05-20T19:34:54;102217.06;;;12.13;59.01
3654;BME280;70277;54.302;10.064;2023-05-20T19:37:21;102222.47;;;12.13;58.81
3654;BME280;70277;54.302;10.064;2023-05-20T19:39:48;102222.47;;;12.13;58.94
3654;BME280;70277;54.302;10.064;2023-05-20T19:42:15;102219.16;;;12.11;58.83
3654;BME280;70277;54.302;10.064;2023-05-20T19:44:41;102217.09;;;12.06;59.38
3654;BME280;70277;54.302;10.064;2023-05-20T19:47:08;102210.47;;;12.02;59.76
3654;BME280;70277;54.302;10.064;2023-05-20T19:49:34;102218.16;;;12.05;59.67
3654;BME280;70277;54.302;10.064;2023-05-20T19:52:01;102215.94;;;11.96;59.66
3654;BME280;70277;54.302;10.064;2023-05-20T19:54:27;102217.59;;;11.97;59.88
3654;BME280;70277;54.302;10.064;2023-05-20T19:56:54;102208.47;;;11.91;60.41
3654;BME280;70277;54.302;10.064;2023-05-20T19:59:21;102205.16;;;11.89;60.13
3654;BME280;70277;54.302;10.064;2023-05-20T20:01:47;102204.72;;;11.92;60.49
3654;BME280;70277;54.302;10.064;2023-05-20T20:04:13;102195.59;;;11.80;60.57
3654;BME280;70277;54.302;10.064;2023-05-20T20:06:42;102196.72;;;11.72;60.80
3654;BME280;70277;54.302;10.064;2023-05-20T20:09:09;102195.44;;;11.75;60.49
3654;BME280;70277;54.302;10.064;2023-05-20T20:11:36;102204.03;;;11.72;61.02
3654;BME280;70277;54.302;10.064;2023-05-20T20:14:02;102207.38;;;11.67;61.05
3654;BME280;70277;54.302;10.064;2023-05-20T20:16:28;102201.06;;;11.73;60.95
3654;BME280;70277;54.302;10.064;2023-05-20T20:18:55;102198.19;;;11.68;61.24
3654;BME280;70277;54.302;10.064;2023-05-20T20:21:22;102199.94;;;11.56;61.36
3654;BME280;70277;54.302;10.064;2023-05-20T20:23:51;102205.16;;;11.57;61.13
3654;BME280;70277;54.302;10.064;2023-05-20T20:26:18;102205.78;;;11.59;61.61
3654;BME280;70277;54.302;10.064;2023-05-20T20:28:48;102212.41;;;11.64;61.53
3654;BME280;70277;54.302;10.064;2023-05-20T20:31:14;102210.16;;;11.60;61.81
3654;BME280;70277;54.302;10.064;2023-05-20T20:33:41;102221.69;;;11.49;61.86
3654;BME280;70277;54.302;10.064;2023-05-20T20:36:07;102212.47;;;11.57;61.62
3654;BME280;70277;54.302;10.064;2023-05-20T20:38:34;102217.28;;;11.55;61.71
3654;BME280;70277;54.302;10.064;2023-05-20T20:41:02;102209.16;;;11.55;61.61
3654;BME280;70277;54.302;10.064;2023-05-20T20:43:29;102208.38;;;11.48;61.73
3654;BME280;70277;54.302;10.064;2023-05-20T20:45:55;102214.56;;;11.55;61.90
3654;BME280;70277;54.302;10.064;2023-05-20T20:48:22;102214.56;;;11.55;62.12
3654;BME280;70277;54.302;10.064;2023-05-20T20:50:52;102213.94;;;11.53;61.40
3654;BME280;70277;54.302;10.064;2023-05-20T20:53:19;102213.78;;;11.48;61.69
3654;BME280;70277;54.302;10.064;2023-05-20T20:55:45;102216.22;;;11.56;60.82
3654;BME280;70277;54.302;10.064;2023-05-20T20:58:12;102214.75;;;11.60;60.97
3654;BME280;70277;54.302;10.064;2023-05-20T21:00:40;102216.44;;;11.54;61.11
3654;BME280;70277;54.302;10.064;2023-05-20T21:03:10;102214.47;;;11.68;61.20
3654;BME280;70277;54.302;10.064;2023-05-20T21:05:37;102211.34;;;11.65;60.64
3654;BME280;70277;54.302;10.064;2023-05-20T21:08:05;102207.44;;;11.60;61.36
3654;BME280;70277;54.302;10.064;2023-05-20T21:10:33;102208.66;;;11.65;61.39
3654;BME280;70277;54.302;10.064;2023-05-20T21:13:02;102205.34;;;11.63;60.38
3654;BME280;70277;54.302;10.064;2023-05-20T21:15:29;102211.81;;;11.61;60.53
3654;BME280;70277;54.302;10.064;2023-05-20T21:17:55;102194.94;;;11.59;61.00
3654;BME280;70277;54.302;10.064;2023-05-20T21:20:22;102209.72;;;11.64;60.52
3654;BME280;70277;54.302;10.064;2023-05-20T21:22:48;102210.41;;;11.52;61.30
3654;BME280;70277;54.302;10.064;2023-05-20T21:25:15;102207.88;;;11.57;61.03
3654;BME280;70277;54.302;10.064;2023-05-20T21:27:41;102202.47;;;11.57;60.99
3654;BME280;70277;54.302;10.064;2023-05-20T21:30:09;102209.34;;;11.53;60.91
3654;BME280;70277;54.302;10.064;2023-05-20T21:32:36;102212.25;;;11.58;60.62
3654;BME280;70277;54.302;10.064;2023-05-20T21:35:03;102202.47;;;11.57;60.80
3654;BME280;70277;54.302;10.064;2023-05-20T21:37:30;102201.78;;;11.62;60.60
3654;BME280;70277;54.302;10.064;2023-05-20T21:39:57;102190.72;;;11.64;60.71
3654;BME280;70277;54.302;10.064;2023-05-20T21:42:23;102194.16;;;11.77;60.27
3654;BME280;70277;54.302;10.064;2023-05-20T21:44:50;102209.03;;;11.68;60.91
3654;BME280;70277;54.302;10.064;2023-05-20T21:47:17;102200.13;;;11.61;60.96
3654;BME280;70277;54.302;10.064;2023-05-20T21:49:45;102202.97;;;11.73;60.82
3654;BME280;70277;54.302;10.064;2023-05-20T21:52:13;102194.81;;;11.73;61.15
3654;BME280;70277;54.302;10.064;2023-05-20T21:54:39;102200.69;;;11.70;60.51
3654;BME280;70277;54.302;10.064;2023-05-20T21:57:06;102190.56;;;11.58;61.47
3654;BME280;70277;54.302;10.064;2023-05-20T21:59:33;102183.69;;;11.56;61.42
3654;BME280;70277;54.302;10.064;2023-05-20T22:01:59;102185.31;;;11.64;61.33
3654;BME280;70277;54.302;10.064;2023-05-20T22:04:26;102187.41;;;11.61;61.46
3654;BME280;70277;54.302;10.064;2023-05-20T22:06:54;102176.66;;;11.48;62.09
3654;BME280;70277;54.302;10.064;2023-05-20T22:09:21;102177.66;;;11.54;61.69
3654;BME280;70277;54.302;10.064;2023-05-20T22:11:48;102173.72;;;11.50;62.19
3654;BME280;70277;54.302;10.064;2023-05-20T22:14:15;102169.53;;;11.54;61.85
3654;BME280;70277;54.302;10.064;2023-05-20T22:16:43;102164.75;;;11.49;62.55
3654;BME280;70277;54.302;10.064;2023-05-20T22:19:14;102173.06;;;11.54;62.48
3654;BME280;70277;54.302;10.064;2023-05-20T22:21:42;102171.56;;;11.58;62.14
3654;BME280;70277;54.302;10.064;2023-05-20T22:24:16;102167.25;;;11.51;62.17
3654;BME280;70277;54.302;10.064;2023-05-20T22:26:43;102169.13;;;11.50;62.44
3654;BME280;70277;54.302;10.064;2023-05-20T22:29:09;102157.41;;;11.56;62.59
3654;BME280;70277;54.302;10.064;2023-05-20T22:31:35;102153.22;;;11.60;62.09
3654;BME280;70277;54.302;10.064;2023-05-20T22:34:03;102145.78;;;11.49;63.15
3654;BME280;70277;54.302;10.064;2023-05-20T22:36:31;102147.00;;;11.53;62.94
3654;BME280;70277;54.302;10.064;2023-05-20T22:39:01;102148.22;;;11.57;62.73
3654;BME280;70277;54.302;10.064;2023-05-20T22:41:28;102135.31;;;11.53;62.30
3654;BME280;70277;54.302;10.064;2023-05-20T22:43:55;102142.63;;;11.52;62.70
3654;BME280;70277;54.302;10.064;2023-05-20T22:46:22;102142.19;;;11.55;62.67
3654;BME280;70277;54.302;10.064;2023-05-20T22:48:49;102135.56;;;11.51;63.64
3654;BME280;70277;54.302;10.064;2023-05-20T22:51:19;102136.16;;;11.53;63.42
3654;BME280;70277;54.302;10.064;2023-05-20T22:53:47;102143.84;;;11.56;63.38
3654;BME280;70277;54.302;10.064;2023-05-20T22:56:14;102136.00;;;11.48;63.17
3654;BME280;70277;54.302;10.064;2023-05-20T22:58:40;102136.25;;;11.40;63.51
3654;BME280;70277;54.302;10.064;2023-05-20T23:01:08;102129.75;;;11.48;64.08
3654;BME280;70277;54.302;10.064;2023-05-20T23:03:36;102127.88;;;11.48;63.48
3654;BME280;70277;54.302;10.064;2023-05-20T23:06:03;102131.59;;;11.47;63.98
3654;BME280;70277;54.302;10.064;2023-05-20T23:08:29;102124.91;;;11.50;64.00
3654;BME280;70277;54.302;10.064;2023-05-20T23:10:56;102120.94;;;11.52;63.71
3654;BME280;70277;54.302;10.064;2023-05-20T23:13:23;102119.44;;;11.56;63.28
3654;BME280;70277;54.302;10.064;2023-05-20T23:15:50;102115.75;;;11.51;63.73
3654;BME280;70277;54.302;10.064;2023-05-20T23:18:17;102121.75;;;11.53;63.95
3654;BME280;70277;54.302;10.064;2023-05-20T23:20:43;102116.44;;;11.65;63.12
3654;BME280;70277;54.302;10.064;2023-05-20T23:23:10;102110.88;;;11.59;63.03